Time;durP1;ratioP1;P1;durP2;ratioP2;P2;SDS_P1;SDS_P2;PMS_P1;PMS_P2;Temp;Humidity;BMP_temperature;BMP_pressure;BME280_temperature;BME280_humidity;BME280_pressure;Samples;Min_cycle;Max_cycle;Signal;HPM_P1;HPM_P2
2022/05/14 00:01:04;;;;;;;;;2.00;2.00;;;;;18.09;45.84;101994.56;5048852;28;45358;-61
2022/05/14 00:03:31;;;;;;;;;3.00;3.00;;;;;18.08;45.92;101998.16;5061724;28;45347;-61
2022/05/14 00:06:03;;;;;;;;;3.25;2.25;;;;;18.04;46.33;101994.88;5042088;28;47810;-61
2022/05/14 00:08:29;;;;;;;;;3.00;3.00;;;;;18.05;45.87;101999.22;5061376;28;45378;-61
2022/05/14 00:13:39;;;;;;;;;3.75;2.00;;;;;17.98;45.86;101995.28;5044255;28;45548;-61
2022/05/14 00:16:06;;;;;;;;;4.25;2.00;;;;;17.92;45.97;101998.38;5058991;28;45319;-61
2022/05/14 00:18:33;;;;;;;;;4.25;3.00;;;;;17.91;46.08;101991.34;5061177;28;45423;-61
2022/05/14 00:20:59;;;;;;;;;2.50;2.00;;;;;17.94;46.29;101996.47;5041805;28;45439;-61
2022/05/14 00:23:25;;;;;;;;;4.00;2.25;;;;;17.93;46.02;101991.22;5042291;28;45615;-61
2022/05/14 00:25:51;;;;;;;;;2.25;2.25;;;;;17.93;46.43;101999.22;5053849;28;45441;-61
2022/05/14 00:28:17;;;;;;;;;5.00;3.50;;;;;17.92;46.42;101997.53;5052027;28;45328;-61
2022/05/14 00:30:43;;;;;;;;;3.00;3.00;;;;;17.92;46.92;101993.06;5060073;28;45246;-61
2022/05/14 00:33:09;;;;;;;;;5.00;3.75;;;;;17.92;46.24;101995.72;5061386;28;45301;-61
2022/05/14 00:35:36;;;;;;;;;5.00;4.50;;;;;17.90;46.48;101989.66;5058275;28;46287;-61
2022/05/14 00:38:02;;;;;;;;;7.50;5.00;;;;;17.88;46.87;101994.25;5061456;28;45272;-61
2022/05/14 00:40:33;;;;;;;;;5.50;4.00;;;;;17.89;46.99;101987.09;5060014;28;45413;-61
2022/05/14 00:42:59;;;;;;;;;4.00;3.25;;;;;17.86;46.82;101990.84;5054555;28;45258;-61
2022/05/14 00:45:26;;;;;;;;;5.75;5.00;;;;;17.84;46.89;101990.06;5058340;28;45422;-61
2022/05/14 00:47:56;;;;;;;;;4.50;3.00;;;;;17.80;46.88;101989.44;5061231;28;45205;-61
2022/05/14 00:50:34;;;;;;;;;4.25;4.25;;;;;17.78;46.94;101985.19;5059994;28;45410;-62
2022/05/14 00:53:10;;;;;;;;;5.25;3.50;;;;;17.74;47.11;101978.34;5041878;28;45553;-61
2022/05/14 00:55:38;;;;;;;;;5.00;4.00;;;;;17.71;47.21;101979.44;5053601;28;45523;-61
2022/05/14 00:58:06;;;;;;;;;5.50;3.75;;;;;17.71;47.17;101983.91;5034799;28;45535;-61
2022/05/14 01:00:32;;;;;;;;;6.25;3.50;;;;;17.68;47.06;101974.25;5022861;28;45390;-61
2022/05/14 01:02:58;;;;;;;;;4.00;3.00;;;;;17.67;47.17;101972.56;5041877;28;45661;-62
2022/05/14 01:05:24;;;;;;;;;5.00;5.00;;;;;17.65;47.31;101979.81;5041474;28;45449;-62
2022/05/14 01:07:52;;;;;;;;;4.00;4.00;;;;;17.66;47.29;101978.00;5041689;28;45328;-62
2022/05/14 01:10:22;;;;;;;;;6.75;5.50;;;;;17.63;47.33;101973.75;5041746;28;45404;-62
2022/05/14 01:12:51;;;;;;;;;4.75;4.50;;;;;17.61;47.18;101972.97;5041484;28;45511;-62
2022/05/14 01:15:22;;;;;;;;;4.00;4.00;;;;;17.63;47.40;101973.75;5033439;28;46115;-62
2022/05/14 01:17:49;;;;;;;;;5.50;5.00;;;;;17.61;47.38;101967.66;5041280;28;45367;-62
2022/05/14 01:20:17;;;;;;;;;7.00;5.00;;;;;17.59;47.32;101970.44;5041945;28;45376;-62
2022/05/14 01:23:03;;;;;;;;;10.25;7.75;;;;;17.56;47.30;101962.66;5041654;28;45187;-62
2022/05/14 01:28:42;;;;;;;;;9.00;8.75;;;;;17.51;47.45;101969.25;5036061;28;45423;-62
2022/05/14 01:31:08;;;;;;;;;7.00;5.25;;;;;17.54;47.48;101963.72;5038130;28;45274;-62
2022/05/14 01:33:34;;;;;;;;;8.00;6.75;;;;;17.53;47.73;101965.50;5041557;28;45290;-62
2022/05/14 01:36:00;;;;;;;;;6.75;5.25;;;;;17.50;47.75;101967.56;5041075;28;46079;-62
2022/05/14 01:38:26;;;;;;;;;6.50;3.50;;;;;17.49;47.62;101964.03;5041669;28;45619;-62
2022/05/14 01:40:52;;;;;;;;;7.75;6.00;;;;;17.47;47.86;101965.09;5041052;28;45337;-62
2022/05/14 01:43:18;;;;;;;;;7.25;6.75;;;;;17.46;48.09;101956.25;5041473;28;45454;-62
2022/05/14 01:45:44;;;;;;;;;8.00;7.00;;;;;17.46;47.77;101961.59;5041221;28;45295;-62
2022/05/14 01:48:10;;;;;;;;;6.50;6.00;;;;;17.43;47.90;101961.78;5041027;28;45498;-62
2022/05/14 01:50:36;;;;;;;;;6.00;5.00;;;;;17.38;48.08;101958.59;5041427;28;45487;-62
2022/05/14 01:53:02;;;;;;;;;9.25;6.25;;;;;17.39;48.21;101954.13;5044666;28;45411;-62
2022/05/14 01:55:27;;;;;;;;;8.75;7.00;;;;;17.38;48.04;101955.94;5061057;28;45409;-62
2022/05/14 01:57:53;;;;;;;;;7.00;5.00;;;;;17.35;48.34;101955.28;5059574;28;45256;-62
2022/05/14 02:00:21;;;;;;;;;5.25;4.00;;;;;17.34;48.32;101950.91;5061495;28;45284;-62
2022/05/14 02:02:47;;;;;;;;;9.25;6.75;;;;;17.33;48.29;101954.53;5060914;28;45405;-62
2022/05/14 02:05:14;;;;;;;;;5.25;5.25;;;;;17.27;48.52;101956.66;5059875;28;45450;-62
2022/05/14 02:07:39;;;;;;;;;4.00;4.00;;;;;17.22;48.54;101948.16;5060962;28;45528;-62
2022/05/14 02:10:05;;;;;;;;;6.50;5.50;;;;;17.18;48.43;101953.78;5061069;28;45293;-62
2022/05/14 02:12:31;;;;;;;;;6.00;6.00;;;;;17.13;48.46;101959.38;5060831;28;45339;-62
2022/05/14 02:14:56;;;;;;;;;8.00;6.00;;;;;17.08;48.66;101948.22;5061186;28;46189;-62
2022/05/14 02:17:22;;;;;;;;;2.50;2.00;;;;;17.08;48.74;101950.03;5060673;28;45388;-63
2022/05/14 02:19:49;;;;;;;;;6.00;6.00;;;;;17.09;48.90;101941.94;5061271;28;45278;-62
2022/05/14 02:22:15;;;;;;;;;6.50;6.50;;;;;17.10;48.83;101951.63;5060880;28;45463;-62
2022/05/14 02:24:41;;;;;;;;;8.00;6.00;;;;;17.11;48.87;101948.00;5060908;28;45295;-62
2022/05/14 02:27:06;;;;;;;;;8.50;7.00;;;;;17.11;48.84;101942.66;5060268;28;45707;-62
2022/05/14 02:29:50;;;;;;;;;9.00;8.00;;;;;17.13;48.71;101942.56;5061022;28;45457;-62
2022/05/14 02:32:17;;;;;;;;;9.00;8.25;;;;;17.12;48.90;101940.88;5060493;28;45186;-62
2022/05/14 02:34:43;;;;;;;;;7.00;7.00;;;;;17.09;48.77;101947.25;5060344;28;46093;-62
2022/05/14 02:37:09;;;;;;;;;7.00;7.00;;;;;17.06;49.05;101939.47;5059476;28;45402;-62
2022/05/14 02:39:34;;;;;;;;;9.50;7.75;;;;;17.05;49.16;101945.75;5060546;28;45371;-62
2022/05/14 02:42:00;;;;;;;;;9.00;9.00;;;;;17.06;49.25;101949.25;5060521;28;45387;-62
2022/05/14 02:44:25;;;;;;;;;11.00;9.00;;;;;17.06;49.26;101952.78;5058383;28;47717;-62
2022/05/14 02:46:50;;;;;;;;;9.50;9.50;;;;;17.07;49.48;101946.50;5061034;28;45419;-62
2022/05/14 02:49:16;;;;;;;;;8.00;8.00;;;;;17.08;49.31;101956.22;5063922;28;45294;-62
2022/05/14 02:51:41;;;;;;;;;9.50;8.00;;;;;17.09;49.37;101952.59;5064351;28;45445;-62
2022/05/14 02:54:07;;;;;;;;;9.00;8.00;;;;;17.10;49.43;101953.44;5062558;28;45414;-62
2022/05/14 02:56:32;;;;;;;;;9.50;8.25;;;;;17.07;49.18;101953.66;5053549;28;45418;-62
2022/05/14 02:59:07;;;;;;;;;9.75;8.00;;;;;17.06;49.40;101951.91;5039510;28;45333;-62
2022/05/14 03:01:37;;;;;;;;;9.00;9.00;;;;;17.05;49.57;101952.88;5049834;28;45450;-62
2022/05/14 03:04:04;;;;;;;;;10.00;9.00;;;;;17.05;49.41;101959.06;5050553;28;45385;-62
2022/05/14 03:06:30;;;;;;;;;7.75;6.50;;;;;17.03;49.56;101958.31;5050473;28;45378;-62
2022/05/14 03:08:56;;;;;;;;;8.00;7.50;;;;;17.01;49.46;101957.56;5050533;28;45486;-62
2022/05/14 03:11:22;;;;;;;;;9.25;8.00;;;;;16.99;49.61;101957.69;5051124;28;45250;-62
2022/05/14 03:13:49;;;;;;;;;9.25;8.50;;;;;16.98;49.57;101957.75;5050554;28;45943;-62
2022/05/14 03:16:15;;;;;;;;;10.00;7.25;;;;;16.95;49.91;101956.16;5051705;28;45555;-62
2022/05/14 03:18:41;;;;;;;;;10.50;9.00;;;;;16.95;49.38;101948.19;5050278;28;45332;-62
2022/05/14 03:21:07;;;;;;;;;13.75;10.25;;;;;16.91;49.73;101952.00;5051324;28;45471;-62
2022/05/14 03:23:32;;;;;;;;;11.25;9.00;;;;;16.90;49.83;101942.28;5049565;28;45592;-62
2022/05/14 03:25:58;;;;;;;;;11.00;10.75;;;;;16.89;49.72;101945.91;5050491;28;45325;-62
2022/05/14 03:28:23;;;;;;;;;12.50;12.25;;;;;16.91;49.65;101953.81;5049737;28;45418;-62
2022/05/14 03:30:49;;;;;;;;;13.75;13.00;;;;;16.89;49.48;101953.06;5051341;28;45361;-62
2022/05/14 03:33:14;;;;;;;;;12.00;10.50;;;;;16.85;49.54;101949.75;5049337;28;45439;-63
2022/05/14 03:35:40;;;;;;;;;15.75;13.75;;;;;16.86;49.65;101956.78;5050525;28;45369;-62
2022/05/14 03:38:06;;;;;;;;;13.75;12.50;;;;;16.83;49.57;101951.66;5049627;28;45386;-62
2022/05/14 03:40:31;;;;;;;;;12.25;9.50;;;;;16.84;49.68;101957.84;5050517;28;45496;-62
2022/05/14 03:42:57;;;;;;;;;18.75;14.25;;;;;16.84;49.69;101955.19;5047632;28;46271;-63
2022/05/14 03:45:23;;;;;;;;;12.75;12.00;;;;;16.80;49.50;101951.00;5041741;28;45231;-62
2022/05/14 03:47:48;;;;;;;;;15.25;13.00;;;;;16.79;49.60;101962.59;5049165;28;45194;-62
2022/05/14 03:50:14;;;;;;;;;13.75;10.00;;;;;16.77;49.82;101951.22;5050445;28;45422;-62
2022/05/14 03:52:39;;;;;;;;;11.50;11.50;;;;;16.71;49.95;101948.00;5049358;28;45405;-63
2022/05/14 03:55:05;;;;;;;;;10.00;9.25;;;;;16.70;50.04;101956.09;5062909;28;45296;-62
2022/05/14 03:57:31;;;;;;;;;13.50;11.25;;;;;16.71;50.01;101955.13;5059122;28;45318;-62
2022/05/14 03:59:56;;;;;;;;;8.25;8.25;;;;;16.70;49.83;101948.09;5057836;28;45584;-63
2022/05/14 04:02:23;;;;;;;;;14.50;11.75;;;;;16.69;50.02;101952.56;5062684;28;45406;-62
2022/05/14 04:04:49;;;;;;;;;10.25;8.00;;;;;16.69;49.95;101951.72;5062817;28;45545;-62
2022/05/14 04:07:14;;;;;;;;;11.25;11.00;;;;;16.70;50.02;101953.41;5063155;28;45342;-63
2022/05/14 04:09:40;;;;;;;;;12.75;11.50;;;;;16.69;50.22;101954.38;5063093;28;45490;-62
2022/05/14 04:12:06;;;;;;;;;9.00;9.00;;;;;16.66;50.17;101944.75;5062551;28;45961;-62
2022/05/14 04:14:31;;;;;;;;;8.75;8.75;;;;;16.65;50.21;101947.50;5062974;28;45378;-62
2022/05/14 04:16:59;;;;;;;;;10.75;9.50;;;;;16.61;50.36;101946.88;5061478;28;45310;-62
2022/05/14 04:19:25;;;;;;;;;13.00;9.00;;;;;16.61;50.23;101946.00;5062922;28;45534;-63
2022/05/14 04:21:51;;;;;;;;;11.75;9.25;;;;;16.59;50.26;101951.44;5062628;28;45410;-62
2022/05/14 04:24:16;;;;;;;;;13.25;11.25;;;;;16.59;50.52;101955.88;5062486;28;45437;-62
2022/05/14 04:26:42;;;;;;;;;14.50;11.50;;;;;16.58;50.34;101948.84;5062238;28;45379;-62
2022/05/14 04:29:08;;;;;;;;;17.50;11.50;;;;;16.57;50.48;101949.81;5062821;28;45438;-63
2022/05/14 04:31:34;;;;;;;;;9.75;9.25;;;;;16.57;50.39;101950.66;5062142;28;46226;-62
2022/05/14 04:34:00;;;;;;;;;16.50;12.00;;;;;16.58;50.58;101948.84;5062480;28;45319;-63
2022/05/14 04:36:26;;;;;;;;;16.50;14.75;;;;;16.58;50.48;101955.03;5062628;28;45306;-62
2022/05/14 04:38:51;;;;;;;;;15.25;12.75;;;;;16.58;50.58;101955.03;5062585;28;45525;-63
2022/05/14 04:41:17;;;;;;;;;14.50;12.00;;;;;16.57;50.65;101952.47;5062047;28;45503;-62
2022/05/14 04:43:43;;;;;;;;;9.00;8.25;;;;;16.54;50.60;101958.00;5062149;28;45300;-62
2022/05/14 04:46:08;;;;;;;;;10.50;10.50;;;;;16.55;50.66;101959.72;5062359;28;45145;-63
2022/05/14 04:48:36;;;;;;;;;14.25;9.00;;;;;16.55;50.86;101957.06;5062123;28;45406;-62
2022/05/14 04:51:02;;;;;;;;;14.75;11.75;;;;;16.54;50.89;101964.19;5062103;28;46099;-63
2022/05/14 04:53:27;;;;;;;;;12.75;10.75;;;;;16.55;50.86;101963.22;5062047;28;45424;-62
2022/05/14 04:55:53;;;;;;;;;11.75;11.75;;;;;16.56;50.75;101967.59;5061836;28;45481;-63
2022/05/14 04:58:20;;;;;;;;;11.00;10.00;;;;;16.55;50.90;101967.69;5053332;28;45389;-63
2022/05/14 05:00:46;;;;;;;;;8.25;8.25;;;;;16.54;50.86;101958.00;5061877;28;45983;-63
2022/05/14 05:03:19;;;;;;;;;15.50;10.50;;;;;16.55;50.92;101965.03;5061862;28;45234;-62
2022/05/14 05:05:53;;;;;;;;;11.00;9.00;;;;;16.53;50.75;101958.97;5061951;28;45318;-63
2022/05/14 05:08:20;;;;;;;;;11.50;9.75;;;;;16.53;50.75;101966.94;5062062;28;45357;-63
2022/05/14 05:10:46;;;;;;;;;13.75;12.00;;;;;16.55;51.14;101957.91;5061004;28;45423;-63
2022/05/14 05:13:14;;;;;;;;;13.75;11.00;;;;;16.59;50.77;101961.19;5061718;28;45442;-63
2022/05/14 05:15:40;;;;;;;;;9.50;8.50;;;;;16.63;50.98;101954.75;5062059;28;45276;-63
2022/05/14 05:18:07;;;;;;;;;13.50;11.50;;;;;16.68;51.04;101963.28;5060605;28;45257;-63
2022/05/14 05:20:34;;;;;;;;;16.25;11.25;;;;;16.73;50.66;101959.38;5061686;28;45358;-63
2022/05/14 05:23:00;;;;;;;;;15.75;11.00;;;;;16.78;50.59;101967.06;5061650;28;45385;-62
2022/05/14 05:25:25;;;;;;;;;16.00;10.00;;;;;16.81;50.45;101974.00;5061689;28;45331;-63
2022/05/14 05:27:51;;;;;;;;;11.50;9.50;;;;;16.85;50.58;101972.84;5061374;28;45350;-63
2022/05/14 05:30:17;;;;;;;;;8.50;8.50;;;;;16.88;50.38;101977.97;5061604;28;45410;-63
2022/05/14 05:32:43;;;;;;;;;12.50;10.00;;;;;16.89;50.25;101979.66;5061186;28;45466;-63
2022/05/14 05:35:08;;;;;;;;;12.75;9.25;;;;;16.89;50.42;101969.03;5061701;28;45474;-63
2022/05/14 05:37:34;;;;;;;;;11.25;10.25;;;;;16.95;50.30;101972.13;5061592;28;45466;-63
2022/05/14 05:39:59;;;;;;;;;7.75;7.75;;;;;17.00;50.01;101967.38;5061379;28;46190;-63
2022/05/14 05:42:25;;;;;;;;;14.00;10.75;;;;;17.02;49.94;101965.44;5059768;28;45716;-63
2022/05/14 05:44:51;;;;;;;;;10.00;9.00;;;;;17.06;49.86;101965.22;5061458;28;45468;-63
2022/05/14 05:47:16;;;;;;;;;8.50;8.00;;;;;17.13;50.07;101975.38;5061307;28;45426;-62
2022/05/14 05:49:42;;;;;;;;;8.00;6.75;;;;;17.21;50.06;101969.53;5061324;28;46183;-63
2022/05/14 05:52:09;;;;;;;;;8.50;6.00;;;;;17.25;49.47;101977.22;5061255;28;45321;-63
2022/05/14 05:57:18;;;;;;;;;8.00;5.75;;;;;17.37;49.36;101980.84;5052248;28;45453;-63
2022/05/14 05:59:43;;;;;;;;;9.75;8.25;;;;;17.45;49.31;101982.97;5049801;28;46116;-63
2022/05/14 06:02:09;;;;;;;;;9.00;7.75;;;;;17.49;49.21;101989.81;5060997;28;45287;-63
2022/05/14 06:04:35;;;;;;;;;9.00;6.75;;;;;17.54;49.27;101982.38;5061183;28;45472;-63
2022/05/14 06:07:02;;;;;;;;;5.25;5.25;;;;;17.60;48.78;101981.94;5061465;28;45354;-63
2022/05/14 06:09:29;;;;;;;;;1.75;1.75;;;;;17.61;48.07;101990.78;5061307;28;45263;-63
2022/05/14 06:11:58;;;;;;;;;4.75;4.00;;;;;17.65;48.37;101989.63;5060973;28;45322;-63
2022/05/14 06:14:24;;;;;;;;;5.25;4.00;;;;;17.69;48.17;101996.44;5061342;28;45343;-63
2022/05/14 06:16:51;;;;;;;;;4.00;3.75;;;;;17.72;47.78;101994.47;5061034;28;45601;-63
2022/05/14 06:19:16;;;;;;;;;7.25;5.00;;;;;17.75;48.16;101993.38;5061143;28;45326;-63
2022/05/14 06:21:42;;;;;;;;;4.00;4.00;;;;;17.78;48.22;101993.19;5059985;28;45191;-63
2022/05/14 06:24:08;;;;;;;;;3.75;2.25;;;;;17.85;47.41;101991.78;5059885;28;45390;-63
2022/05/14 06:26:34;;;;;;;;;6.00;3.00;;;;;17.92;47.56;102000.19;5060768;28;45428;-63
2022/05/14 06:28:59;;;;;;;;;3.00;3.00;;;;;17.91;47.33;102003.81;5060747;28;46068;-69
2022/05/14 06:31:25;;;;;;;;;5.75;5.75;;;;;17.98;47.31;102003.28;5060537;28;45303;-63
2022/05/14 06:33:51;;;;;;;;;8.00;5.25;;;;;18.07;47.05;102001.78;5061054;28;45414;-63
2022/05/14 06:36:17;;;;;;;;;6.00;4.25;;;;;18.15;47.05;101999.44;5060991;28;45615;-63
2022/05/14 06:38:42;;;;;;;;;10.00;7.00;;;;;18.24;46.41;102000.59;5060706;28;45968;-63
2022/05/14 06:41:11;;;;;;;;;5.00;5.00;;;;;18.34;46.22;102004.31;5060312;28;45465;-63
2022/05/14 06:43:38;;;;;;;;;7.00;4.00;;;;;18.35;46.13;102008.69;5060633;28;45168;-63
2022/05/14 06:46:04;;;;;;;;;2.25;2.25;;;;;18.35;46.03;102004.19;5060520;28;45162;-63
2022/05/14 06:48:30;;;;;;;;;3.25;2.00;;;;;18.37;45.98;102004.94;5060334;28;45322;-63
2022/05/14 06:51:04;;;;;;;;;4.25;2.00;;;;;18.39;45.55;101996.81;5060369;28;45477;-63
2022/05/14 06:53:29;;;;;;;;;2.00;2.00;;;;;18.38;45.76;102003.97;5060680;28;45208;-64
2022/05/14 06:55:58;;;;;;;;;3.50;3.50;;;;;18.40;45.95;101998.50;5060510;28;45407;-63
2022/05/14 06:58:29;;;;;;;;;3.00;3.00;;;;;18.36;45.57;102007.72;5049642;28;45347;-63
2022/05/14 07:00:54;;;;;;;;;5.00;2.75;;;;;18.33;45.56;101997.28;5058741;28;45482;-63
2022/05/14 07:08:50;;;;;;;;;6.25;3.00;;;;;18.31;45.58;102007.19;5060237;28;45252;-63
2022/05/14 07:11:16;;;;;;;;;1.00;1.00;;;;;18.33;45.83;102002.63;5059069;28;45263;-64
2022/05/14 07:13:41;;;;;;;;;3.50;2.50;;;;;18.40;45.76;102001.19;5060143;28;45461;-63
2022/05/14 07:16:06;;;;;;;;;2.25;1.25;;;;;18.45;45.56;102004.38;5060406;28;45639;-63
2022/05/14 07:18:32;;;;;;;;;2.25;2.00;;;;;18.49;45.74;102003.22;5059780;28;45984;-63
2022/05/14 07:20:58;;;;;;;;;3.00;2.50;;;;;18.55;45.64;101996.56;5060323;28;45325;-64
2022/05/14 07:23:24;;;;;;;;;4.00;2.00;;;;;18.56;45.56;101998.25;5060367;28;45367;-63
2022/05/14 07:25:50;;;;;;;;;2.25;2.00;;;;;18.60;45.35;101997.94;5059930;28;45300;-63
2022/05/14 07:28:16;;;;;;;;;3.50;2.50;;;;;18.62;45.51;101996.00;5060067;28;45485;-64
2022/05/14 07:30:41;;;;;;;;;2.50;1.50;;;;;18.65;45.79;101992.28;5060138;28;45449;-59
2022/05/14 07:33:07;;;;;;;;;3.75;2.00;;;;;18.68;45.56;101990.25;5060903;28;45185;-62
2022/05/14 07:35:34;;;;;;;;;5.25;2.00;;;;;18.71;45.47;101985.66;5070746;28;45453;-64
2022/05/14 07:38:03;;;;;;;;;4.75;4.00;;;;;18.72;45.47;101990.88;5069876;28;46046;-64
2022/05/14 07:40:32;;;;;;;;;1.50;1.50;;;;;18.68;45.32;101986.72;5072181;27;45362;-65
2022/05/14 07:42:57;;;;;;;;;4.00;3.00;;;;;18.67;45.44;101985.03;5070732;28;45276;-64
2022/05/14 07:45:27;;;;;;;;;3.50;2.00;;;;;18.67;45.76;101985.03;5072822;28;45269;-64
2022/05/14 07:47:55;;;;;;;;;2.00;2.00;;;;;18.74;45.32;101982.75;5072330;28;45483;-63
2022/05/14 07:50:22;;;;;;;;;3.00;2.00;;;;;18.81;45.15;101989.38;5071269;27;45328;-64
2022/05/14 07:52:47;;;;;;;;;5.50;1.75;;;;;18.84;45.33;101981.97;5072883;28;45458;-63
2022/05/14 07:55:13;;;;;;;;;3.50;1.50;;;;;18.86;44.96;101985.34;5072468;28;45441;-63
2022/05/14 07:57:38;;;;;;;;;1.50;1.50;;;;;18.90;45.02;101980.66;5070432;28;45486;-62
2022/05/14 08:00:05;;;;;;;;;2.25;1.50;;;;;18.95;45.05;101983.81;5059645;27;45430;-62
2022/05/14 08:02:36;;;;;;;;;2.50;1.75;;;;;19.00;45.03;101983.50;5063951;28;45540;-63
2022/05/14 08:05:04;;;;;;;;;3.75;3.00;;;;;19.02;44.62;101985.06;5099462;27;45353;-62
2022/05/14 08:07:31;;;;;;;;;2.00;2.00;;;;;19.07;45.01;101974.91;5073064;28;46411;-62
2022/05/14 08:09:57;;;;;;;;;1.00;1.00;;;;;19.09;44.86;101978.31;5071113;28;45429;-62
2022/05/14 08:12:22;;;;;;;;;3.00;1.50;;;;;19.09;44.49;101975.63;5071984;28;45342;-62
2022/05/14 08:14:48;;;;;;;;;2.75;2.75;;;;;19.10;44.61;101973.81;5074130;28;46302;-62
2022/05/14 08:17:13;;;;;;;;;3.75;3.00;;;;;19.15;44.98;101972.50;5074532;28;45555;-62
2022/05/14 08:19:40;;;;;;;;;3.00;3.00;;;;;19.17;44.32;101977.72;5070726;28;45326;-62
2022/05/14 08:24:50;;;;;;;;;2.75;2.50;;;;;19.28;44.62;101974.25;5072123;28;46548;-62
2022/05/14 08:27:17;;;;;;;;;3.75;3.00;;;;;19.34;44.52;101977.28;5068601;28;45311;-63
2022/05/14 08:29:45;;;;;;;;;3.75;3.00;;;;;19.42;44.66;101972.19;5072396;27;46430;-65
2022/05/14 08:32:11;;;;;;;;;5.75;4.00;;;;;19.50;44.37;101969.78;5071543;28;45380;-65
2022/05/14 08:34:37;;;;;;;;;3.25;2.00;;;;;19.55;44.03;101973.94;5072902;28;45576;-66
2022/05/14 08:37:03;;;;;;;;;3.00;2.25;;;;;19.58;44.24;101973.72;5072506;28;45893;-66
2022/05/14 08:39:29;;;;;;;;;6.25;4.00;;;;;19.59;44.48;101973.63;5071941;28;45378;-65
2022/05/14 08:41:57;;;;;;;;;3.75;2.00;;;;;19.64;44.25;101975.94;5071319;28;45368;-66
2022/05/14 08:44:32;;;;;;;;;4.75;4.00;;;;;19.67;44.08;101973.00;5071673;28;45260;-65
2022/05/14 08:47:06;;;;;;;;;6.00;2.00;;;;;19.73;44.28;101967.19;5068572;28;46458;-65
2022/05/14 08:49:49;;;;;;;;;3.00;3.00;;;;;19.75;43.77;101963.44;5072016;27;45329;-66
2022/05/14 08:52:21;;;;;;;;;4.00;3.00;;;;;19.82;44.39;101965.59;5070676;28;45324;-65
2022/05/14 08:54:56;;;;;;;;;6.00;4.75;;;;;19.87;43.66;101964.28;5071794;28;45486;-67
2022/05/14 08:57:37;;;;;;;;;7.00;4.00;;;;;19.92;43.21;101964.78;5087635;27;46936;-67
2022/05/14 09:00:06;;;;;;;;;4.25;4.00;;;;;19.97;43.70;101953.69;5061898;28;45228;-66
2022/05/14 09:02:36;;;;;;;;;7.00;5.25;;;;;20.04;43.20;101954.91;5062264;28;45419;-65
2022/05/14 09:05:10;;;;;;;;;4.25;4.25;;;;;20.12;43.29;101951.63;5056531;28;45395;-63
2022/05/14 09:07:36;;;;;;;;;5.75;3.75;;;;;20.18;43.08;101962.69;5060620;28;45839;-66
2022/05/14 09:10:06;;;;;;;;;5.25;4.00;;;;;20.24;43.06;101961.34;5061617;28;45415;-64
2022/05/14 09:12:34;;;;;;;;;6.50;4.75;;;;;20.29;43.52;101957.31;5060703;28;45405;-64
2022/05/14 09:15:15;;;;;;;;;8.25;5.00;;;;;20.36;43.27;101946.97;5064164;28;45477;-64
2022/05/14 09:17:40;;;;;;;;;6.75;5.75;;;;;20.40;42.79;101955.59;5072382;28;46017;-63
2022/05/14 09:20:07;;;;;;;;;7.00;6.00;;;;;20.38;42.71;101957.53;5065699;28;45369;-64
2022/05/14 09:22:52;;;;;;;;;7.00;5.00;;;;;20.41;43.09;101960.84;5063884;28;45481;-63
2022/05/14 09:25:21;;;;;;;;;3.50;3.00;;;;;20.48;42.57;101947.84;5060597;28;45468;-65
2022/05/14 09:27:54;;;;;;;;;5.00;5.00;;;;;20.50;42.46;101948.56;5065984;28;45457;-62
2022/05/14 09:30:35;;;;;;;;;4.25;4.00;;;;;20.57;42.08;101947.91;5070462;27;45513;-63
2022/05/14 09:33:02;;;;;;;;;7.25;6.00;;;;;20.59;41.95;101945.97;5065692;28;45607;-64
2022/05/14 09:35:32;;;;;;;;;6.25;5.00;;;;;20.60;42.36;101939.63;5066721;28;45464;-63
2022/05/14 09:38:17;;;;;;;;;1.75;1.00;;;;;20.65;41.90;101935.72;5073864;28;45346;-63
2022/05/14 09:40:42;;;;;;;;;6.00;3.50;;;;;20.69;42.05;101938.00;5072802;28;45318;-61
2022/05/14 09:43:17;;;;;;;;;6.25;3.00;;;;;20.69;41.92;101935.34;5068355;28;45550;-62
2022/05/14 09:45:55;;;;;;;;;7.00;5.00;;;;;20.69;41.72;101932.66;5060964;28;45406;-62
2022/05/14 09:48:29;;;;;;;;;3.25;3.25;;;;;20.79;41.74;101922.91;5060196;28;45334;-61
2022/05/14 09:51:04;;;;;;;;;6.25;4.00;;;;;20.90;41.75;101924.66;5059180;28;45329;-66
2022/05/14 09:53:33;;;;;;;;;2.25;2.25;;;;;21.01;41.66;101916.56;5058840;28;45329;-62
2022/05/14 09:56:25;;;;;;;;;3.50;3.50;;;;;21.16;41.13;101917.09;5060268;28;45461;-65
2022/05/14 09:59:12;;;;;;;;;3.25;2.75;;;;;21.31;40.70;101907.78;5054422;28;45255;-63
2022/05/14 10:01:53;;;;;;;;;3.00;3.00;;;;;21.41;40.32;101910.53;5060218;28;45502;-58
2022/05/14 10:04:36;;;;;;;;;2.00;2.00;;;;;21.55;40.44;101903.94;5055441;28;47404;-60
2022/05/14 10:07:17;;;;;;;;;5.50;2.25;;;;;21.66;40.25;101904.72;5060662;28;47287;-53
2022/05/14 10:09:52;;;;;;;;;2.75;1.75;;;;;21.75;39.92;101908.44;5059028;28;46085;-61
2022/05/14 10:12:45;;;;;;;;;4.50;3.00;;;;;21.78;39.13;101901.94;5060592;28;45385;-58
2022/05/14 10:15:27;;;;;;;;;4.25;2.50;;;;;21.80;39.48;101913.38;5060444;28;45235;-59
2022/05/14 10:18:31;;;;;;;;;3.00;3.00;;;;;21.83;39.06;101902.38;5059930;28;45231;-58
2022/05/14 10:21:23;;;;;;;;;6.00;3.25;;;;;21.86;39.30;101899.41;5067594;28;45465;-59
2022/05/14 10:27:19;;;;;;;;;3.00;3.00;;;;;21.77;39.35;101895.72;5064779;28;45391;-58
2022/05/14 10:29:58;;;;;;;;;1.50;1.50;;;;;21.82;39.26;101898.84;5064648;28;45323;-57
2022/05/14 10:32:30;;;;;;;;;4.50;2.50;;;;;21.91;39.31;101902.56;5067321;28;46222;-58
2022/05/14 10:35:23;;;;;;;;;2.75;2.50;;;;;22.03;39.48;101896.91;5068749;28;45359;-58
2022/05/14 10:38:12;;;;;;;;;4.00;2.75;;;;;22.11;39.39;101898.97;5067262;28;45305;-59
2022/05/14 10:40:41;;;;;;;;;4.00;2.25;;;;;22.14;39.09;101887.97;5066554;28;45433;-58
2022/05/14 10:43:35;;;;;;;;;2.25;2.25;;;;;22.18;39.15;101892.06;5068793;28;45734;-59
2022/05/14 10:46:06;;;;;;;;;2.75;1.75;;;;;22.26;38.86;101888.69;5065314;28;45391;-59
2022/05/14 10:48:50;;;;;;;;;3.00;2.25;;;;;22.33;38.55;101886.28;5065716;28;45488;-56
2022/05/14 10:51:26;;;;;;;;;4.00;2.50;;;;;22.35;38.18;101887.84;5055581;28;45465;-56
2022/05/14 10:53:53;;;;;;;;;3.00;3.00;;;;;22.38;37.94;101882.22;5059219;28;46266;-47
2022/05/14 10:56:26;;;;;;;;;4.75;4.00;;;;;22.42;38.17;101885.44;5061476;28;45388;-60
2022/05/14 10:58:52;;;;;;;;;4.50;3.00;;;;;22.48;37.99;101882.22;5061117;28;45454;-58
2022/05/14 11:01:36;;;;;;;;;4.00;3.25;;;;;22.50;37.86;101880.22;5061451;28;45391;-61
2022/05/14 11:04:06;;;;;;;;;6.00;3.75;;;;;22.56;37.92;101869.75;5059329;28;46443;-62
2022/05/14 11:06:36;;;;;;;;;5.00;5.00;;;;;22.64;37.52;101874.44;5047792;28;45357;-57
2022/05/14 11:09:19;;;;;;;;;3.25;2.50;;;;;22.68;37.54;101878.53;5062104;28;45392;-61
2022/05/14 11:11:55;;;;;;;;;4.75;3.25;;;;;22.72;37.51;101877.25;5053274;28;45210;-69
2022/05/14 11:14:21;;;;;;;;;7.00;5.50;;;;;22.73;39.02;101872.72;5062473;28;45329;-49
2022/05/14 11:16:50;;;;;;;;;16.75;12.50;;;;;22.78;39.53;101867.78;5063013;28;45386;-53
2022/05/14 11:19:31;;;;;;;;;22.00;20.25;;;;;22.88;38.17;101873.19;5062972;28;45508;-54
2022/05/14 11:21:59;;;;;;;;;8.00;7.50;;;;;22.92;38.05;101855.78;5063489;28;45365;-51
2022/05/14 11:24:51;;;;;;;;;6.75;4.25;;;;;22.99;38.27;101860.44;5063336;28;45354;-57
2022/05/14 11:27:31;;;;;;;;;9.75;8.50;;;;;23.06;38.26;101855.31;5061671;28;45435;-58
2022/05/14 11:30:03;;;;;;;;;9.00;6.50;;;;;23.09;37.34;101849.66;5063365;28;45343;-59
2022/05/14 11:32:42;;;;;;;;;7.25;6.00;;;;;23.11;37.24;101851.22;5063036;28;45486;-60
2022/05/14 11:35:08;;;;;;;;;12.75;11.00;;;;;23.19;39.28;101849.63;5062752;28;46234;-59
2022/05/14 11:37:44;;;;;;;;;37.50;31.75;;;;;23.28;39.67;101841.53;5062964;28;45340;-59
2022/05/14 11:40:18;;;;;;;;;8.75;8.75;;;;;23.36;37.51;101836.25;5063078;28;45318;-59
2022/05/14 11:42:47;;;;;;;;;13.25;9.75;;;;;23.37;37.82;101837.09;5063089;28;45434;-59
2022/05/14 11:45:21;;;;;;;;;16.00;14.50;;;;;23.43;39.38;101838.38;5062608;28;45342;-59
2022/05/14 11:48:07;;;;;;;;;3.50;3.50;;;;;23.47;37.42;101837.94;5062695;28;45359;-56
2022/05/14 11:50:47;;;;;;;;;6.00;4.25;;;;;23.49;36.95;101837.78;5069915;27;45351;-60